Time;durP1;ratioP1;P1;durP2;ratioP2;P2;SDS_P1;SDS_P2;PMS_P1;PMS_P2;Temp;Humidity;BMP_temperature;BMP_pressure;BME280_temperature;BME280_humidity;BME280_pressure;Samples;Min_cycle;Max_cycle;Signal;HPM_P1;HPM_P2
2022/11/24 00:02:00;;;;;;;2.58;1.35;;;20.70;49.80;;;;;;5076232;28;20525;-54
2022/11/24 00:04:26;;;;;;;2.88;1.20;;;20.70;49.70;;;;;;5091369;28;20039;-54
2022/11/24 00:06:54;;;;;;;3.13;1.30;;;20.60;49.70;;;;;;5090474;28;20043;-53
2022/11/24 00:09:20;;;;;;;2.55;1.48;;;20.60;49.70;;;;;;5074071;28;20049;-54
2022/11/24 00:11:46;;;;;;;1.83;1.05;;;20.60;49.60;;;;;;5073279;28;20047;-53
2022/11/24 00:14:11;;;;;;;2.83;1.45;;;20.60;49.60;;;;;;5074036;28;20037;-55
2022/11/24 00:16:38;;;;;;;2.28;1.63;;;20.60;49.60;;;;;;5072686;28;20036;-53
2022/11/24 00:19:07;;;;;;;2.60;1.42;;;20.60;49.50;;;;;;5074072;28;20044;-54
2022/11/24 00:21:34;;;;;;;2.03;1.50;;;20.60;49.60;;;;;;5056601;28;20115;-54
2022/11/24 00:24:01;;;;;;;2.45;1.42;;;20.50;49.50;;;;;;5073132;28;20361;-53
2022/11/24 00:26:32;;;;;;;1.67;1.20;;;20.50;49.40;;;;;;5074126;28;20103;-55
2022/11/24 00:29:00;;;;;;;4.03;1.70;;;20.50;49.40;;;;;;5074328;28;20051;-54
2022/11/24 00:31:27;;;;;;;5.55;1.38;;;20.50;49.40;;;;;;5073841;28;20056;-54
2022/11/24 00:33:55;;;;;;;2.50;1.35;;;20.50;49.40;;;;;;5072622;28;20120;-53
2022/11/24 00:36:23;;;;;;;3.30;1.98;;;20.50;49.40;;;;;;5073741;28;20123;-54
2022/11/24 00:38:55;;;;;;;3.22;1.50;;;20.50;49.40;;;;;;5073760;28;20041;-53
2022/11/24 00:41:22;;;;;;;2.30;1.20;;;20.50;49.40;;;;;;5073622;28;20036;-55
2022/11/24 00:43:48;;;;;;;2.35;1.23;;;20.40;49.30;;;;;;5056854;28;20056;-54
2022/11/24 00:46:14;;;;;;;2.33;1.50;;;20.40;49.30;;;;;;5072690;28;20087;-53
2022/11/24 00:48:40;;;;;;;3.38;1.40;;;20.40;49.30;;;;;;5074227;28;20076;-55
2022/11/24 00:51:09;;;;;;;2.55;1.40;;;20.40;49.30;;;;;;5073226;28;20041;-53
2022/11/24 00:53:34;;;;;;;3.22;1.40;;;20.40;49.30;;;;;;5072901;28;20090;-54
2022/11/24 00:56:02;;;;;;;1.92;1.35;;;20.40;49.30;;;;;;5073535;28;20032;-54
2022/11/24 00:58:29;;;;;;;2.95;1.38;;;20.30;49.20;;;;;;5072390;28;20044;-52
2022/11/24 01:01:00;;;;;;;2.90;1.23;;;20.30;49.20;;;;;;5072300;28;20044;-53
2022/11/24 01:03:26;;;;;;;2.65;1.30;;;20.30;49.20;;;;;;5074134;28;20051;-54
2022/11/24 01:05:51;;;;;;;3.00;1.48;;;20.30;49.20;;;;;;5073163;28;20045;-54
2022/11/24 01:08:17;;;;;;;2.83;1.35;;;20.30;49.10;;;;;;5073146;28;20041;-53
2022/11/24 01:10:43;;;;;;;3.45;1.60;;;20.30;49.20;;;;;;5070532;28;20046;-55
2022/11/24 01:13:08;;;;;;;2.33;1.30;;;20.30;49.20;;;;;;5073349;28;20041;-54
2022/11/24 01:15:35;;;;;;;3.60;1.50;;;20.30;49.10;;;;;;5072205;28;20036;-52
2022/11/24 01:18:01;;;;;;;4.55;1.45;;;20.30;49.20;;;;;;5073098;28;20037;-53
2022/11/24 01:20:27;;;;;;;2.33;1.30;;;20.20;49.10;;;;;;5072331;28;20045;-53
2022/11/24 01:22:52;;;;;;;3.33;1.45;;;20.20;49.10;;;;;;5072330;28;20070;-54
2022/11/24 01:25:18;;;;;;;2.70;1.40;;;20.20;49.10;;;;;;5074130;28;20033;-53
2022/11/24 01:27:44;;;;;;;2.30;1.33;;;20.20;49.10;;;;;;5073511;28;20101;-56
2022/11/24 01:30:10;;;;;;;3.33;1.40;;;20.20;49.10;;;;;;5072032;28;20047;-53
2022/11/24 01:32:36;;;;;;;3.42;1.85;;;20.20;49.10;;;;;;5072291;28;20095;-53
2022/11/24 01:35:04;;;;;;;2.58;1.52;;;20.20;49.10;;;;;;5082603;28;20648;-53
2022/11/24 01:37:29;;;;;;;2.47;1.42;;;20.20;49.10;;;;;;5076192;28;20048;-53
2022/11/24 01:39:55;;;;;;;3.65;1.65;;;20.10;49.10;;;;;;5076840;28;20046;-54
2022/11/24 01:42:21;;;;;;;3.22;1.50;;;20.10;49.00;;;;;;5075497;28;20052;-53
2022/11/24 01:45:11;;;;;;;2.60;1.13;;;20.10;49.00;;;;;;5076372;28;20080;-53
2022/11/24 01:47:42;;;;;;;3.05;1.58;;;20.10;49.00;;;;;;5076866;28;20040;-54
2022/11/24 01:50:15;;;;;;;3.60;1.45;;;20.10;49.10;;;;;;5076535;28;20508;-53
2022/11/24 01:52:46;;;;;;;3.25;1.33;;;20.10;49.00;;;;;;5075438;28;20087;-52
2022/11/24 01:55:20;;;;;;;2.92;1.80;;;20.10;49.00;;;;;;5076496;28;20345;-53
2022/11/24 01:57:51;;;;;;;2.72;1.10;;;20.10;49.00;;;;;;5092035;28;20071;-53
2022/11/24 02:00:17;;;;;;;3.47;1.80;;;20.10;49.10;;;;;;5075214;28;20051;-53
2022/11/24 02:02:44;;;;;;;3.40;1.73;;;20.00;49.00;;;;;;5076198;28;20047;-53
2022/11/24 02:05:22;;;;;;;2.65;1.27;;;20.00;49.00;;;;;;5058513;28;20495;-53
2022/11/24 02:07:48;;;;;;;3.58;1.60;;;20.00;49.00;;;;;;5076412;28;20171;-52
2022/11/24 02:10:15;;;;;;;2.40;1.50;;;20.00;49.00;;;;;;5075587;28;20181;-53
2022/11/24 02:12:45;;;;;;;3.00;1.55;;;20.00;49.00;;;;;;5076024;28;20036;-54
2022/11/24 02:15:14;;;;;;;2.83;1.40;;;20.00;49.00;;;;;;5075060;28;20043;-53
2022/11/24 02:17:40;;;;;;;3.30;1.65;;;20.00;49.10;;;;;;5074969;28;20051;-52
2022/11/24 02:20:08;;;;;;;3.65;1.50;;;20.00;49.10;;;;;;5073570;28;20048;-52
2022/11/24 02:22:55;;;;;;;2.40;1.38;;;20.00;49.00;;;;;;5074901;28;20055;-52
2022/11/24 02:25:35;;;;;;;2.13;1.33;;;20.00;49.00;;;;;;5076065;28;20124;-52
2022/11/24 02:28:05;;;;;;;2.90;1.45;;;20.00;49.00;;;;;;5076805;28;20067;-51
2022/11/24 02:30:31;;;;;;;2.78;1.60;;;19.90;49.00;;;;;;5074527;28;20545;-52
2022/11/24 02:32:57;;;;;;;3.72;1.63;;;19.90;49.00;;;;;;5075814;28;20114;-52
2022/11/24 02:35:25;;;;;;;3.08;1.63;;;19.90;49.00;;;;;;5096022;28;20044;-52
2022/11/24 02:37:51;;;;;;;3.20;1.60;;;19.90;49.00;;;;;;5094734;28;20136;-53
2022/11/24 02:40:24;;;;;;;4.47;1.60;;;19.90;49.00;;;;;;5094683;28;20076;-52
2022/11/24 02:42:55;;;;;;;3.63;2.03;;;19.90;49.00;;;;;;5096025;28;20036;-52
2022/11/24 02:45:21;;;;;;;;;;;19.90;49.00;;;;;;5095767;28;20380;-53
2022/11/24 02:47:47;;;;;;;3.95;1.63;;;19.90;48.90;;;;;;5095122;28;19916;-53
2022/11/24 02:50:13;;;;;;;2.53;1.45;;;19.80;49.20;;;;;;5095831;28;20036;-52
2022/11/24 02:52:39;;;;;;;4.53;1.60;;;19.80;49.10;;;;;;5087985;28;20046;-52
2022/11/24 02:55:04;;;;;;;3.33;1.30;;;19.80;49.10;;;;;;5075411;28;20115;-52
2022/11/24 02:57:30;;;;;;;4.32;1.63;;;19.80;49.00;;;;;;5075996;28;20033;-55
2022/11/24 02:59:56;;;;;;;4.00;1.30;;;19.80;49.00;;;;;;5075808;28;20516;-50
2022/11/24 03:02:22;;;;;;;4.03;1.63;;;19.80;49.00;;;;;;5075324;28;20067;-53
2022/11/24 03:04:48;;;;;;;4.43;1.83;;;19.80;49.00;;;;;;5074116;28;20036;-52
2022/11/24 03:07:13;;;;;;;2.55;1.48;;;19.80;49.00;;;;;;5073975;28;20124;-53
2022/11/24 03:09:39;;;;;;;2.42;1.63;;;19.80;49.00;;;;;;5075709;28;20491;-54
2022/11/24 03:12:05;;;;;;;5.05;1.95;;;19.70;49.00;;;;;;5057479;28;20036;-52
2022/11/24 03:14:31;;;;;;;3.28;1.83;;;19.70;49.00;;;;;;5074683;28;20032;-53
2022/11/24 03:16:57;;;;;;;4.38;1.80;;;19.70;49.00;;;;;;5057319;28;20056;-53
2022/11/24 03:19:22;;;;;;;2.63;1.27;;;19.70;49.00;;;;;;5074802;28;20396;-53
2022/11/24 03:21:48;;;;;;;4.38;1.70;;;19.70;49.00;;;;;;5073587;28;20039;-52
2022/11/24 03:24:14;;;;;;;4.05;1.90;;;19.70;49.00;;;;;;5056926;28;20185;-54
2022/11/24 03:26:41;;;;;;;3.53;1.50;;;19.70;49.00;;;;;;5074474;28;20119;-52
2022/11/24 03:29:07;;;;;;;3.60;1.73;;;19.70;49.00;;;;;;5074629;28;20381;-51
2022/11/24 03:31:33;;;;;;;2.28;1.50;;;19.70;49.00;;;;;;5074842;28;20040;-52
2022/11/24 03:33:59;;;;;;;3.60;1.30;;;19.70;48.90;;;;;;5074644;28;20040;-53
2022/11/24 03:36:25;;;;;;;5.35;1.85;;;19.70;48.90;;;;;;5074668;28;20361;-52
2022/11/24 03:38:51;;;;;;;2.42;1.30;;;19.60;48.90;;;;;;5075404;28;20047;-52
2022/11/24 03:41:17;;;;;;;3.03;1.60;;;19.70;48.90;;;;;;5074190;28;20379;-50
2022/11/24 03:43:43;;;;;;;3.42;1.60;;;19.60;48.80;;;;;;5075048;28;20041;-52
2022/11/24 03:46:09;;;;;;;3.15;1.40;;;19.60;48.80;;;;;;5074393;28;20044;-51
2022/11/24 03:48:34;;;;;;;2.42;1.50;;;19.60;48.90;;;;;;5073229;28;20047;-52
2022/11/24 03:51:02;;;;;;;4.03;1.77;;;19.60;48.80;;;;;;5073724;28;20037;-52
2022/11/24 03:53:30;;;;;;;4.03;1.67;;;19.60;48.80;;;;;;5073091;28;20114;-53
2022/11/24 03:55:57;;;;;;;3.65;1.60;;;19.60;48.90;;;;;;5074234;28;20040;-53
2022/11/24 03:58:23;;;;;;;3.17;1.40;;;19.60;48.80;;;;;;5073043;28;20040;-53
2022/11/24 04:00:50;;;;;;;3.72;1.60;;;19.60;48.80;;;;;;5072943;28;20040;-53
2022/11/24 04:03:16;;;;;;;3.33;1.75;;;19.60;48.80;;;;;;5073024;28;20040;-54
2022/11/24 04:05:41;;;;;;;5.18;1.77;;;19.60;48.90;;;;;;5073162;28;20052;-53
2022/11/24 04:08:08;;;;;;;3.92;1.67;;;19.60;49.50;;;;;;5073054;28;20044;-54
2022/11/24 04:10:36;;;;;;;5.45;1.80;;;19.50;48.70;;;;;;5073663;28;20040;-52
2022/11/24 04:13:03;;;;;;;2.60;1.45;;;19.50;48.70;;;;;;5073343;28;20048;-52
2022/11/24 04:15:29;;;;;;;3.63;1.85;;;19.60;48.80;;;;;;5073637;28;20468;-52
2022/11/24 04:17:55;;;;;;;3.60;1.73;;;19.50;48.70;;;;;;5072597;28;20044;-52
2022/11/24 04:20:21;;;;;;;3.75;1.65;;;19.50;48.70;;;;;;5055843;28;20049;-53
2022/11/24 04:22:49;;;;;;;5.82;1.83;;;19.50;48.70;;;;;;5073828;28;20037;-52
2022/11/24 04:25:16;;;;;;;4.25;1.33;;;19.50;48.80;;;;;;5072334;28;20055;-51
2022/11/24 04:27:42;;;;;;;3.30;1.45;;;19.50;48.70;;;;;;5055970;28;20055;-50
2022/11/24 04:30:09;;;;;;;3.80;1.60;;;19.50;48.70;;;;;;5073844;28;20093;-52
2022/11/24 04:32:35;;;;;;;3.92;1.60;;;19.50;48.70;;;;;;5055853;28;20047;-51
2022/11/24 04:35:01;;;;;;;2.70;1.55;;;19.50;48.70;;;;;;5073766;28;20456;-52
2022/11/24 04:37:27;;;;;;;4.18;1.70;;;19.50;48.80;;;;;;5073321;28;20101;-52
2022/11/24 04:39:54;;;;;;;3.17;1.25;;;19.50;48.70;;;;;;5072419;28;20082;-54
2022/11/24 04:42:20;;;;;;;2.60;1.42;;;19.50;48.80;;;;;;5074314;28;20040;-53
2022/11/24 04:44:46;;;;;;;4.22;1.63;;;19.50;48.80;;;;;;5072599;28;20048;-53
2022/11/24 04:47:22;;;;;;;4.65;1.30;;;19.50;48.80;;;;;;5072356;28;20045;-54
2022/11/24 04:49:48;;;;;;;4.82;1.65;;;19.40;48.70;;;;;;5073689;28;20043;-54
2022/11/24 04:52:15;;;;;;;3.30;1.55;;;19.40;48.80;;;;;;5073491;28;20059;-53
2022/11/24 04:54:40;;;;;;;3.13;1.40;;;19.40;48.80;;;;;;5072237;28;20167;-51
2022/11/24 04:57:06;;;;;;;4.40;1.42;;;19.40;48.80;;;;;;5073276;28;20115;-52
2022/11/24 04:59:32;;;;;;;3.72;1.67;;;19.40;48.80;;;;;;5073189;28;20043;-54
2022/11/24 05:01:58;;;;;;;4.55;1.40;;;19.40;48.70;;;;;;5055837;28;20120;-53
2022/11/24 05:04:24;;;;;;;2.90;1.70;;;19.40;48.80;;;;;;5072245;28;20045;-53
2022/11/24 05:06:49;;;;;;;5.50;2.03;;;19.40;49.50;;;;;;5072764;28;20032;-54
2022/11/24 05:09:16;;;;;;;2.67;1.38;;;19.40;48.80;;;;;;5075508;28;20045;-53
2022/11/24 05:11:42;;;;;;;2.97;1.45;;;19.40;48.80;;;;;;5077425;28;20043;-54
2022/11/24 05:14:08;;;;;;;3.55;1.45;;;19.40;48.80;;;;;;5076075;28;20044;-53
2022/11/24 05:16:34;;;;;;;3.88;1.40;;;19.40;48.80;;;;;;5077296;28;20086;-52
2022/11/24 05:19:00;;;;;;;5.03;1.42;;;19.40;48.80;;;;;;5077265;28;20060;-52
2022/11/24 05:21:27;;;;;;;2.67;1.50;;;19.40;48.80;;;;;;5075955;28;20049;-52
2022/11/24 05:23:52;;;;;;;3.42;1.33;;;19.40;48.80;;;;;;5077730;28;20040;-52
2022/11/24 05:26:18;;;;;;;3.45;1.60;;;19.30;48.70;;;;;;5077142;28;20036;-52
2022/11/24 05:28:44;;;;;;;2.95;1.60;;;19.30;48.70;;;;;;5077676;28;20441;-52
2022/11/24 05:31:09;;;;;;;4.38;1.63;;;19.30;48.70;;;;;;5075747;28;20036;-52
2022/11/24 05:33:37;;;;;;;3.88;1.50;;;19.30;48.70;;;;;;5075946;28;20131;-53
2022/11/24 05:36:05;;;;;;;2.72;1.38;;;19.30;48.70;;;;;;5077025;28;20048;-51
2022/11/24 05:38:32;;;;;;;3.33;1.55;;;19.30;48.70;;;;;;5076209;28;20124;-52
2022/11/24 05:41:02;;;;;;;4.10;1.33;;;19.30;48.70;;;;;;5076819;28;20041;-52
2022/11/24 05:43:28;;;;;;;3.40;1.30;;;19.30;48.70;;;;;;5076536;28;20129;-52
2022/11/24 05:45:57;;;;;;;2.17;1.17;;;19.30;48.70;;;;;;5059628;28;20048;-52
2022/11/24 05:48:22;;;;;;;4.60;1.60;;;19.30;48.70;;;;;;5076055;28;20045;-53
2022/11/24 05:50:55;;;;;;;5.47;1.42;;;19.30;48.80;;;;;;5075429;28;20059;-53
2022/11/24 05:53:21;;;;;;;5.10;1.38;;;19.30;48.90;;;;;;5076675;28;20113;-52
2022/11/24 05:55:47;;;;;;;5.18;1.77;;;19.30;48.90;;;;;;5076537;28;20043;-52
2022/11/24 05:58:13;;;;;;;4.47;1.63;;;19.30;48.90;;;;;;5075871;28;20036;-55
2022/11/24 06:00:39;;;;;;;5.20;1.77;;;19.30;48.90;;;;;;5076445;28;20041;-52
2022/11/24 06:03:04;;;;;;;5.75;1.45;;;19.30;48.90;;;;;;5076959;28;20119;-53
2022/11/24 06:05:30;;;;;;;4.45;1.65;;;19.20;48.80;;;;;;5076977;28;20040;-50
2022/11/24 06:07:58;;;;;;;7.72;1.83;;;19.20;48.80;;;;;;5076118;28;20028;-53
2022/11/24 06:10:24;;;;;;;5.10;1.38;;;19.30;48.90;;;;;;5075495;28;20071;-53
2022/11/24 06:12:50;;;;;;;3.45;1.38;;;19.20;48.90;;;;;;5092507;28;20456;-53
2022/11/24 06:15:16;;;;;;;1.90;1.20;;;19.30;48.90;;;;;;5059385;28;20044;-52
2022/11/24 06:17:42;;;;;;;4.30;1.17;;;19.20;48.80;;;;;;5076283;28;20032;-52
2022/11/24 06:20:09;;;;;;;4.25;1.40;;;19.20;48.80;;;;;;5075945;28;20056;-53
2022/11/24 06:22:35;;;;;;;4.43;1.38;;;19.20;48.90;;;;;;5076108;28;20045;-52
2022/11/24 06:25:01;;;;;;;5.63;1.63;;;19.20;48.90;;;;;;5076091;28;20029;-53
2022/11/24 06:27:27;;;;;;;2.85;1.33;;;19.20;48.90;;;;;;5076580;28;20119;-52
2022/11/24 06:29:53;;;;;;;3.72;1.40;;;19.20;49.70;;;;;;5076827;28;20036;-52
2022/11/24 06:32:19;;;;;;;13.57;1.50;;;19.20;49.00;;;;;;5075963;28;20376;-52
2022/11/24 06:34:44;;;;;;;7.53;1.70;;;19.20;49.00;;;;;;5060651;28;20089;-52
2022/11/24 06:37:10;;;;;;;4.72;1.60;;;19.20;49.00;;;;;;5075878;28;20072;-52
2022/11/24 06:39:36;;;;;;;4.63;1.60;;;19.20;49.00;;;;;;5074639;28;20047;-53
2022/11/24 06:42:02;;;;;;;3.60;1.52;;;19.20;49.10;;;;;;5074640;28;20048;-53
2022/11/24 06:44:28;;;;;;;3.97;1.30;;;19.20;49.10;;;;;;5072191;28;20423;-50
2022/11/24 06:46:54;;;;;;;3.13;1.30;;;19.20;49.10;;;;;;5057723;28;20079;-53
2022/11/24 06:49:20;;;;;;;3.97;1.80;;;19.20;49.10;;;;;;5075222;28;20087;-52
2022/11/24 06:51:46;;;;;;;7.30;1.90;;;19.20;49.10;;;;;;5066580;28;20487;-52
2022/11/24 06:54:16;;;;;;;5.20;1.75;;;19.20;49.10;;;;;;5095766;28;20044;-53
2022/11/24 06:56:42;;;;;;;3.30;1.58;;;19.20;49.00;;;;;;5073931;28;20115;-53
2022/11/24 06:59:16;;;;;;;3.10;1.52;;;19.20;49.10;;;;;;5075589;28;20079;-52
2022/11/24 07:01:42;;;;;;;3.47;1.60;;;19.20;49.10;;;;;;5084186;28;20079;-53
2022/11/24 07:04:09;;;;;;;3.95;1.70;;;19.10;49.00;;;;;;5095503;28;20424;-53
2022/11/24 07:06:35;;;;;;;3.35;1.48;;;19.20;49.10;;;;;;5091381;28;20143;-52
2022/11/24 07:09:00;;;;;;;3.38;1.45;;;19.20;49.20;;;;;;5078496;28;20043;-52
2022/11/24 07:11:26;;;;;;;4.53;1.73;;;19.20;49.20;;;;;;5091543;28;20047;-53
2022/11/24 07:13:52;;;;;;;4.22;1.85;;;19.10;49.10;;;;;;5094698;28;20089;-53
2022/11/24 07:16:19;;;;;;;4.28;1.48;;;19.20;49.20;;;;;;5095327;28;20093;-53
2022/11/24 07:18:46;;;;;;;4.03;1.58;;;19.10;49.10;;;;;;5092312;28;20047;-51
2022/11/24 07:21:12;;;;;;;4.40;1.52;;;19.10;49.10;;;;;;5077016;28;20048;-53
2022/11/24 07:23:37;;;;;;;3.85;1.80;;;19.10;49.30;;;;;;5095111;28;20173;-53
2022/11/24 07:26:07;;;;;;;5.13;1.55;;;19.20;49.40;;;;;;5088667;28;20116;-52
2022/11/24 07:28:35;;;;;;;5.73;1.93;;;19.10;50.20;;;;;;5074880;28;20056;-52
2022/11/24 07:31:15;;;;;;;5.05;1.67;;;19.20;49.50;;;;;;5071649;28;20290;-52
2022/11/24 07:33:41;;;;;;;4.70;2.10;;;19.20;49.50;;;;;;5074726;28;20071;-52
2022/11/24 07:36:08;;;;;;;5.70;1.63;;;19.10;49.40;;;;;;5071882;28;20109;-52
2022/11/24 07:38:34;;;;;;;10.32;2.35;;;19.10;49.50;;;;;;5083768;28;20479;-53
2022/11/24 07:41:05;;;;;;;6.25;1.83;;;19.20;49.60;;;;;;5093378;28;20093;-52
2022/11/24 07:43:32;;;;;;;4.82;1.73;;;19.10;49.60;;;;;;5056924;28;20051;-53
2022/11/24 07:45:58;;;;;;;8.75;1.88;;;19.10;49.90;;;;;;5086792;28;20068;-53
2022/11/24 07:48:24;;;;;;;7.07;1.88;;;19.20;50.00;;;;;;5093185;28;20492;-53
2022/11/24 07:50:50;;;;;;;7.03;2.15;;;19.60;49.60;;;;;;5093485;28;20128;-53
2022/11/24 07:53:16;;;;;;;6.18;1.52;;;20.30;48.60;;;;;;5094552;28;20032;-52
2022/11/24 07:55:42;;;;;;;9.13;2.20;;;21.00;47.20;;;;;;5094670;28;20105;-53
2022/11/24 07:58:07;;;;;;;8.55;1.83;;;21.50;46.00;;;;;;5091495;28;20043;-54
2022/11/24 08:00:33;;;;;;;4.43;1.90;;;22.00;45.00;;;;;;5094382;28;20107;-53
2022/11/24 08:02:59;;;;;;;8.48;2.17;;;22.30;44.40;;;;;;5094436;28;20054;-52
2022/11/24 08:05:25;;;;;;;4.78;1.98;;;22.40;44.20;;;;;;5094400;28;20040;-54
2022/11/24 08:07:50;;;;;;;7.97;2.00;;;22.30;44.40;;;;;;5094353;28;20043;-54
2022/11/24 08:10:16;;;;;;;7.22;1.95;;;22.20;45.30;;;;;;5091260;28;20028;-54
2022/11/24 08:12:42;;;;;;;5.70;1.83;;;22.10;44.80;;;;;;5093072;28;20127;-54
2022/11/24 08:15:08;;;;;;;6.47;2.20;;;22.00;45.00;;;;;;5091300;28;20115;-54
2022/11/24 08:17:34;;;;;;;6.28;1.65;;;22.00;45.30;;;;;;5094263;28;20039;-54
2022/11/24 08:20:00;;;;;;;5.55;1.70;;;21.80;45.60;;;;;;5086589;28;20544;-56
2022/11/24 08:22:26;;;;;;;5.75;1.92;;;21.60;45.90;;;;;;5073934;28;20124;-55
2022/11/24 08:24:51;;;;;;;5.72;1.95;;;21.60;46.20;;;;;;5082911;28;20092;-55
2022/11/24 08:27:18;;;;;;;4.90;1.83;;;21.50;46.40;;;;;;5092939;28;20081;-54
2022/11/24 08:29:44;;;;;;;8.23;2.08;;;21.40;46.50;;;;;;5080509;28;20113;-55
2022/11/24 08:32:10;;;;;;;6.93;1.70;;;21.30;46.60;;;;;;5071716;28;20041;-54
2022/11/24 08:34:37;;;;;;;5.85;2.05;;;21.30;46.80;;;;;;5071610;28;20040;-55
2022/11/24 08:37:04;;;;;;;7.22;2.58;;;21.30;47.00;;;;;;5073767;28;20043;-55
2022/11/24 08:39:30;;;;;;;10.40;2.20;;;21.30;47.20;;;;;;5078671;28;20083;-54
2022/11/24 08:41:55;;;;;;;10.35;2.28;;;21.30;47.20;;;;;;5093856;28;20071;-55
2022/11/24 08:44:21;;;;;;;7.88;2.47;;;21.30;47.30;;;;;;5092114;28;20065;-55
2022/11/24 08:46:47;;;;;;;6.32;2.33;;;21.40;47.30;;;;;;5075775;28;20047;-55
2022/11/24 08:49:13;;;;;;;8.10;2.47;;;21.30;47.30;;;;;;5092457;28;20032;-54
2022/11/24 08:51:40;;;;;;;7.78;2.50;;;21.40;47.50;;;;;;5093848;28;20054;-54
2022/11/24 08:54:07;;;;;;;9.63;2.55;;;21.40;47.40;;;;;;5081256;28;20047;-54
2022/11/24 08:56:33;;;;;;;7.88;2.17;;;21.40;47.30;;;;;;5074041;28;20075;-54
2022/11/24 08:58:59;;;;;;;6.28;2.28;;;21.40;47.00;;;;;;5072261;28;20151;-54
2022/11/24 09:01:26;;;;;;;6.00;1.90;;;21.40;46.90;;;;;;5072087;28;20067;-53
2022/11/24 09:03:52;;;;;;;6.82;2.10;;;21.40;46.80;;;;;;5072578;28;20127;-54
2022/11/24 09:06:23;;;;;;;5.35;1.88;;;21.40;46.70;;;;;;5077721;28;20123;-54
2022/11/24 09:08:53;;;;;;;5.03;1.70;;;21.40;46.70;;;;;;5094276;28;20032;-54
2022/11/24 09:11:19;;;;;;;5.22;1.85;;;21.40;46.80;;;;;;5093622;28;20036;-54
2022/11/24 09:13:45;;;;;;;5.35;2.15;;;21.40;46.40;;;;;;5090947;28;20094;-56
2022/11/24 09:16:15;;;;;;;4.60;1.65;;;21.40;46.50;;;;;;5093760;28;20036;-54
2022/11/24 09:18:42;;;;;;;6.28;1.98;;;21.40;46.40;;;;;;5073054;28;20427;-57
2022/11/24 09:21:10;;;;;;;5.85;1.67;;;21.40;46.50;;;;;;5092437;28;20502;-55
2022/11/24 09:23:37;;;;;;;4.53;1.63;;;21.40;46.40;;;;;;5093610;28;20047;-55
2022/11/24 09:26:11;;;;;;;3.70;1.58;;;21.40;47.20;;;;;;5092345;28;20043;-54
2022/11/24 09:28:37;;;;;;;5.22;1.60;;;21.40;46.40;;;;;;5092455;28;20491;-53
2022/11/24 09:31:05;;;;;;;5.47;1.75;;;21.40;46.50;;;;;;5093636;28;20036;-53
2022/11/24 09:33:31;;;;;;;4.72;1.30;;;21.40;46.40;;;;;;5093447;28;20048;-54
2022/11/24 09:35:58;;;;;;;5.55;1.70;;;21.40;46.40;;;;;;5093517;28;20044;-53
2022/11/24 09:38:24;;;;;;;5.78;1.67;;;21.40;46.40;;;;;;5092448;28;20040;-53
2022/11/24 09:40:52;;;;;;;3.15;1.20;;;21.30;46.20;;;;;;5092092;28;20122;-54
2022/11/24 09:43:36;;;;;;;3.65;1.90;;;21.40;46.30;;;;;;5073231;28;20496;-52
2022/11/24 09:46:14;;;;;;;5.85;1.70;;;21.40;46.20;;;;;;5071833;28;20119;-53
2022/11/24 09:48:45;;;;;;;5.63;1.75;;;21.30;46.10;;;;;;5070768;28;20379;-54
2022/11/24 09:51:13;;;;;;;4.72;1.77;;;21.40;46.30;;;;;;5073541;28;20434;-52
2022/11/24 09:53:58;;;;;;;3.53;1.30;;;21.40;46.30;;;;;;5091964;28;20044;-53
2022/11/24 09:56:27;;;;;;;5.20;1.50;;;21.40;46.30;;;;;;5075004;28;20052;-56
2022/11/24 09:59:16;;;;;;;4.47;1.50;;;21.40;46.30;;;;;;5074537;28;20071;-53
2022/11/24 10:01:44;;;;;;;4.53;1.75;;;21.40;46.30;;;;;;5075683;28;20082;-54
2022/11/24 10:04:20;;;;;;;3.38;1.50;;;21.40;46.30;;;;;;5075613;28;20053;-55
2022/11/24 10:07:10;;;;;;;3.10;1.63;;;21.50;46.20;;;;;;5086025;28;20048;-52
2022/11/24 10:09:54;;;;;;;4.78;1.42;;;21.50;46.20;;;;;;5095194;28;20480;-54
2022/11/24 10:12:28;;;;;;;4.28;1.60;;;21.50;46.20;;;;;;5096488;28;20444;-55
2022/11/24 10:15:05;;;;;;;3.05;1.48;;;21.50;46.20;;;;;;5095362;28;20085;-56
2022/11/24 10:18:25;;;;;;;1.70;1.10;;;21.50;46.10;;;;;;5095311;28;20036;-53
2022/11/24 10:21:27;;;;;;;2.35;1.17;;;21.50;46.00;;;;;;5017489;28;20063;-52
2022/11/24 10:24:12;;;;;;;2.33;1.33;;;21.50;45.90;;;;;;5096502;28;20043;-54
2022/11/24 10:26:41;;;;;;;3.92;1.33;;;21.40;46.00;;;;;;5078767;28;20048;-54
2022/11/24 10:29:15;;;;;;;3.28;1.30;;;21.50;46.00;;;;;;5093375;28;20051;-53
2022/11/24 10:31:43;;;;;;;2.30;1.10;;;21.50;45.90;;;;;;5094671;28;20484;-54
2022/11/24 10:34:16;;;;;;;3.90;1.33;;;21.50;45.90;;;;;;5095028;28;20047;-54
2022/11/24 10:37:17;;;;;;;2.33;1.20;;;21.50;45.80;;;;;;5077168;28;20051;-53
2022/11/24 10:39:54;;;;;;;2.55;1.30;;;21.60;45.80;;;;;;5057784;28;20484;-53
2022/11/24 10:42:25;;;;;;;2.80;1.00;;;21.50;45.80;;;;;;5075527;28;20487;-53
2022/11/24 10:45:09;;;;;;;3.00;1.17;;;21.60;45.80;;;;;;5075333;28;20362;-52
2022/11/24 10:47:34;;;;;;;2.63;1.20;;;21.60;45.70;;;;;;5076302;28;20071;-53
2022/11/24 10:50:00;;;;;;;2.40;1.10;;;21.60;45.70;;;;;;5071747;28;20079;-55
2022/11/24 10:52:29;;;;;;;3.30;1.33;;;21.60;45.50;;;;;;5080125;28;20093;-53
2022/11/24 10:55:00;;;;;;;2.55;1.00;;;21.60;45.50;;;;;;5095767;28;20043;-54
2022/11/24 10:57:33;;;;;;;2.53;0.88;;;21.70;45.60;;;;;;5095733;28;20082;-54
2022/11/24 11:00:01;;;;;;;1.98;1.10;;;21.70;45.60;;;;;;5094710;28;20040;-53
2022/11/24 11:02:30;;;;;;;2.88;1.27;;;21.70;45.80;;;;;;5094107;28;20040;-55
2022/11/24 11:04:56;;;;;;;4.70;1.60;;;21.70;46.10;;;;;;5077727;28;20052;-54
2022/11/24 11:07:24;;;;;;;3.85;1.45;;;21.70;46.30;;;;;;5095103;28;20047;-55
2022/11/24 11:09:50;;;;;;;2.65;1.20;;;21.70;46.40;;;;;;5077664;28;20048;-53
2022/11/24 11:12:22;;;;;;;2.40;1.17;;;21.70;46.50;;;;;;5094295;28;20069;-52
2022/11/24 11:14:49;;;;;;;8.52;1.55;;;21.70;46.60;;;;;;5095059;28;20386;-54
2022/11/24 11:17:36;;;;;;;12.10;1.40;;;21.70;46.40;;;;;;5077159;28;20046;-54
2022/11/24 11:20:14;;;;;;;2.75;1.20;;;21.70;46.30;;;;;;5094677;28;20364;-55
2022/11/24 11:22:44;;;;;;;4.13;1.30;;;21.60;46.40;;;;;;5095221;28;20054;-55
2022/11/24 11:25:09;;;;;;;4.93;1.05;;;21.60;46.60;;;;;;5093952;28;20480;-55
2022/11/24 11:27:35;;;;;;;3.35;1.20;;;21.60;46.60;;;;;;5076998;28;20093;-54
2022/11/24 11:30:31;;;;;;;3.00;1.10;;;21.60;46.70;;;;;;5077473;28;20040;-54
2022/11/24 11:32:59;;;;;;;5.35;1.27;;;21.60;46.70;;;;;;5077137;28;20121;-55
2022/11/24 11:35:32;;;;;;;2.15;1.23;;;21.60;46.80;;;;;;5094702;28;20371;-54
2022/11/24 11:38:01;;;;;;;2.15;1.10;;;21.60;46.90;;;;;;5094899;28;20140;-55
2022/11/24 11:40:29;;;;;;;3.08;1.30;;;21.60;47.00;;;;;;5076959;28;20040;-55
2022/11/24 11:43:25;;;;;;;2.72;1.08;;;21.60;47.00;;;;;;5093923;28;20044;-54
2022/11/24 11:46:15;;;;;;;4.63;1.42;;;21.70;46.90;;;;;;5093641;28;20076;-55
2022/11/24 11:48:45;;;;;;;8.88;1.77;;;21.70;47.00;;;;;;5083636;28;20056;-55
2022/11/24 11:51:29;;;;;;;1.95;1.35;;;21.60;47.00;;;;;;5094733;28;20040;-55
2022/11/24 11:54:24;;;;;;;2.78;1.35;;;21.60;47.00;;;;;;5093567;28;20126;-54
2022/11/24 11:57:09;;;;;;;2.45;0.85;;;21.60;47.10;;;;;;5076208;28;20486;-56
2022/11/24 11:59:51;;;;;;;4.45;1.00;;;21.70;47.30;;;;;;5094619;28;20043;-56
2022/11/24 12:02:55;;;;;;;4.25;1.13;;;21.70;47.50;;;;;;5094253;28;20039;-55
2022/11/24 12:05:40;;;;;;;4.00;1.27;;;21.80;47.70;;;;;;5045946;28;20082;-55
2022/11/24 12:08:23;;;;;;;3.33;1.15;;;21.80;47.70;;;;;;5076799;28;20059;-55
2022/11/24 12:10:56;;;;;;;2.95;1.10;;;21.70;47.80;;;;;;5095392;28;20085;-54
2022/11/24 12:13:58;;;;;;;4.05;1.13;;;21.70;47.80;;;;;;5094444;28;20124;-55
2022/11/24 12:16:29;;;;;;;6.10;1.10;;;21.70;47.80;;;;;;5093383;28;20499;-55
2022/11/24 12:19:24;;;;;;;5.78;1.15;;;21.70;47.80;;;;;;5092037;28;20056;-55
2022/11/24 12:22:04;;;;;;;3.63;1.10;;;21.80;47.90;;;;;;5022883;28;20049;-57
2022/11/24 12:24:46;;;;;;;2.90;1.08;;;21.80;47.90;;;;;;5094100;28;20066;-54
2022/11/24 12:27:26;;;;;;;4.20;1.08;;;21.80;47.80;;;;;;5093487;28;20360;-55
2022/11/24 12:29:57;;;;;;;2.80;0.98;;;21.80;47.70;;;;;;5062817;28;20041;-55
2022/11/24 12:32:32;;;;;;;4.53;1.15;;;21.80;47.80;;;;;;5056483;28;20102;-54
2022/11/24 12:35:16;;;;;;;5.15;1.10;;;21.80;47.80;;;;;;5072327;28;20041;-55
2022/11/24 12:37:48;;;;;;;2.40;1.13;;;21.90;47.90;;;;;;5073825;28;20051;-55
2022/11/24 12:40:26;;;;;;;2.78;1.17;;;21.90;47.90;;;;;;5073642;28;20169;-55
2022/11/24 12:43:04;;;;;;;3.65;1.17;;;21.90;47.80;;;;;;5056841;28;20052;-55
2022/11/24 12:45:55;;;;;;;3.17;1.02;;;21.90;47.70;;;;;;5055438;28;20118;-55
2022/11/24 12:48:56;;;;;;;1.73;0.90;;;21.70;47.70;;;;;;5072813;28;20093;-55
2022/11/24 12:51:35;;;;;;;2.38;0.70;;;21.50;48.10;;;;;;5057993;28;20445;-55
2022/11/24 12:54:05;;;;;;;2.67;1.05;;;21.20;48.50;;;;;;5090883;28;20040;-56
2022/11/24 12:56:47;;;;;;;1.45;0.82;;;21.00;48.80;;;;;;5093139;28;20062;-54
2022/11/24 12:59:13;;;;;;;3.00;1.20;;;20.90;49.10;;;;;;5068745;28;20048;-55
2022/11/24 13:01:43;;;;;;;2.58;0.90;;;20.70;49.50;;;;;;5073494;28;20363;-55